createdAt,value
2022-10-03T00:00:16.485Z,60.82
2022-10-03T00:03:14.350Z,60.87
2022-10-03T00:05:51.817Z,60.99
2022-10-03T00:08:22.215Z,60.90
2022-10-03T00:10:57.412Z,60.99
2022-10-03T00:13:27.008Z,60.89
2022-10-03T00:16:02.259Z,61.02
2022-10-03T00:18:35.846Z,60.99
2022-10-03T00:21:26.733Z,60.98
2022-10-03T00:24:00.160Z,60.82
2022-10-03T00:26:31.997Z,60.88
2022-10-03T00:29:17.901Z,61.04
2022-10-03T00:31:48.827Z,61.07
2022-10-03T00:34:22.397Z,60.79
2022-10-03T00:36:51.957Z,60.99
2022-10-03T00:39:29.451Z,60.89
2022-10-03T00:42:13.564Z,60.91
2022-10-03T00:44:52.273Z,60.82
2022-10-03T00:47:27.525Z,61.02
2022-10-03T00:50:08.412Z,60.87
2022-10-03T00:53:01.360Z,60.87
2022-10-03T00:55:35.603Z,60.76
2022-10-03T00:58:16.384Z,60.88
2022-10-03T01:00:46.135Z,60.77
2022-10-03T01:03:22.774Z,60.72
2022-10-03T01:05:56.637Z,60.95
2022-10-03T01:08:35.212Z,60.85
2022-10-03T01:11:07.172Z,60.83
2022-10-03T01:13:43.011Z,60.89
2022-10-03T01:16:16.043Z,60.67
2022-10-03T01:18:52.264Z,60.91
2022-10-03T01:21:23.716Z,60.70
2022-10-03T01:24:13.224Z,60.91
2022-10-03T01:26:53.828Z,60.86
2022-10-03T01:29:43.435Z,60.82
2022-10-03T01:32:13.657Z,61.03
2022-10-03T01:34:43.587Z,60.95
2022-10-03T01:37:12.700Z,60.66
2022-10-03T01:39:43.551Z,60.97
2022-10-03T01:42:13.522Z,60.66
2022-10-03T01:44:54.014Z,60.91
2022-10-03T01:47:26.388Z,61.03
2022-10-03T01:49:57.298Z,60.79
2022-10-03T01:52:26.604Z,60.87
2022-10-03T01:54:58.046Z,60.95
2022-10-03T01:57:28.553Z,60.79
2022-10-03T01:59:59.307Z,61.00
2022-10-03T02:02:31.235Z,60.59
2022-10-03T02:05:03.362Z,60.64
2022-10-03T02:07:32.032Z,60.92
2022-10-03T02:10:04.823Z,60.67
2022-10-03T02:12:35.023Z,60.79
2022-10-03T02:15:14.291Z,60.74
2022-10-03T02:17:47.529Z,60.84
2022-10-03T02:20:23.633Z,60.87
2022-10-03T02:22:53.225Z,60.78
2022-10-03T02:25:25.175Z,60.74
2022-10-03T02:28:30.488Z,60.67
2022-10-03T02:31:26.552Z,60.69
2022-10-03T02:34:23.053Z,60.99
2022-10-03T02:37:06.185Z,60.74
2022-10-03T02:40:02.499Z,60.79
2022-10-03T02:42:52.810Z,60.79
2022-10-03T02:45:44.372Z,60.87
2022-10-03T02:48:31.867Z,60.56
2022-10-03T02:51:17.933Z,60.65
2022-10-03T02:54:15.250Z,60.76
2022-10-03T02:56:57.466Z,60.60
2022-10-03T02:59:50.304Z,60.65
2022-10-03T03:02:48.825Z,60.72
2022-10-03T03:05:31.130Z,60.67
2022-10-03T03:08:24.433Z,60.64
2022-10-03T03:11:08.081Z,60.69
2022-10-03T03:13:51.124Z,60.67
2022-10-03T03:16:44.118Z,60.70
2022-10-03T03:19:18.395Z,60.82
2022-10-03T03:21:52.542Z,60.84
2022-10-03T03:24:56.676Z,60.80
2022-10-03T03:27:31.267Z,60.81
2022-10-03T03:30:02.209Z,60.67
2022-10-03T03:32:38.053Z,60.60
2022-10-03T03:35:10.465Z,60.88
2022-10-03T03:37:43.631Z,60.67
2022-10-03T03:40:27.750Z,60.57
2022-10-03T03:43:14.530Z,60.43
2022-10-03T03:45:47.443Z,60.59
2022-10-03T03:48:31.347Z,60.69
2022-10-03T03:51:07.948Z,60.71
2022-10-03T03:53:49.123Z,60.65
2022-10-03T03:56:30.555Z,60.42
2022-10-03T03:59:03.606Z,60.75
2022-10-03T04:01:40.865Z,60.72
2022-10-03T04:04:16.773Z,60.55
2022-10-03T04:06:56.096Z,60.91
2022-10-03T04:09:40.881Z,60.68
2022-10-03T04:12:10.949Z,60.57
2022-10-03T04:14:46.214Z,60.59
2022-10-03T04:17:37.567Z,60.60
2022-10-03T04:20:13.485Z,60.77
2022-10-03T04:22:52.918Z,60.54
2022-10-03T04:25:28.806Z,60.68
2022-10-03T04:28:14.198Z,60.84
2022-10-03T04:30:47.369Z,60.72
2022-10-03T04:33:25.408Z,60.53
2022-10-03T04:36:33.809Z,60.62
2022-10-03T04:39:06.422Z,60.47
2022-10-03T04:41:43.084Z,60.47
2022-10-03T04:44:19.541Z,60.57
2022-10-03T04:46:50.863Z,60.61
2022-10-03T04:49:21.625Z,60.56
2022-10-03T04:51:55.807Z,60.61
2022-10-03T04:54:28.069Z,60.76
2022-10-03T04:57:01.369Z,60.50
2022-10-03T04:59:36.141Z,60.57
2022-10-03T05:02:05.501Z,60.63
2022-10-03T05:04:35.145Z,60.59
2022-10-03T05:07:08.230Z,60.62
2022-10-03T05:09:40.638Z,60.60
2022-10-03T05:12:13.758Z,60.64
2022-10-03T05:14:53.343Z,60.65
2022-10-03T05:17:23.503Z,60.42
2022-10-03T05:19:58.246Z,60.49
2022-10-03T05:22:41.789Z,60.64
2022-10-03T05:25:21.717Z,60.56
2022-10-03T05:27:53.135Z,60.68
2022-10-03T05:30:22.153Z,60.67
2022-10-03T05:32:52.388Z,60.70
2022-10-03T05:35:25.378Z,60.53
2022-10-03T05:38:00.975Z,60.60
2022-10-03T05:40:29.419Z,60.44
2022-10-03T05:43:04.118Z,60.51
2022-10-03T05:45:36.114Z,60.48
2022-10-03T05:48:13.334Z,60.59
2022-10-03T05:50:50.664Z,60.76
2022-10-03T05:53:31.724Z,60.53
2022-10-03T05:56:05.878Z,60.63
2022-10-03T05:58:57.786Z,60.36
2022-10-03T06:01:34.832Z,60.65
2022-10-03T06:04:09.211Z,60.59
2022-10-03T06:06:46.213Z,60.77
2022-10-03T06:09:36.618Z,60.55
2022-10-03T06:12:10.062Z,60.53
2022-10-03T06:14:57.862Z,60.57
2022-10-03T06:17:32.781Z,60.63
2022-10-03T06:20:03.797Z,60.44
2022-10-03T06:23:05.795Z,60.56
2022-10-03T06:26:09.557Z,60.60
2022-10-03T06:28:52.942Z,60.68
2022-10-03T06:31:50.483Z,60.50
2022-10-03T06:34:36.130Z,60.69
2022-10-03T06:37:19.660Z,60.54
2022-10-03T06:40:12.248Z,60.40
2022-10-03T06:43:06.569Z,60.50
2022-10-03T06:45:50.991Z,60.60
2022-10-03T06:48:50.954Z,60.40
2022-10-03T06:51:40.247Z,60.57
2022-10-03T06:54:17.645Z,60.60
2022-10-03T06:57:10.511Z,60.40
2022-10-03T07:00:02.058Z,60.46
2022-10-03T07:02:57.352Z,60.47
2022-10-03T07:05:51.232Z,60.56
2022-10-03T07:09:06.263Z,60.49
2022-10-03T07:11:43.450Z,60.56
2022-10-03T07:14:28.365Z,60.66
2022-10-03T07:17:11.642Z,60.52
2022-10-03T07:20:01.041Z,60.82
2022-10-03T07:23:06.326Z,60.57
2022-10-03T07:26:00.602Z,60.58
2022-10-03T07:28:50.483Z,60.75
2022-10-03T07:31:23.964Z,60.71
2022-10-03T07:34:25.575Z,60.51
2022-10-03T07:37:22.908Z,60.71
2022-10-03T07:40:06.561Z,60.63
2022-10-03T07:43:03.418Z,60.52
2022-10-03T07:45:39.387Z,60.66
2022-10-03T07:48:17.295Z,60.81
2022-10-03T07:51:09.517Z,60.63
2022-10-03T07:54:06.402Z,60.74
2022-10-03T07:56:55.985Z,60.68
2022-10-03T07:59:52.428Z,60.51
2022-10-03T08:02:33.588Z,60.61
2022-10-03T08:05:11.356Z,60.74
2022-10-03T08:07:52.278Z,60.63
2022-10-03T08:10:30.613Z,60.55
2022-10-03T08:13:09.082Z,60.70
2022-10-03T08:15:45.287Z,60.64
2022-10-03T08:18:48.940Z,60.61
2022-10-03T08:21:20.452Z,60.59
2022-10-03T08:24:10.817Z,60.93
2022-10-03T08:26:46.785Z,60.54
2022-10-03T08:29:48.314Z,60.57
2022-10-03T08:32:32.789Z,60.65
2022-10-03T08:35:18.987Z,60.68
2022-10-03T08:38:07.773Z,60.85
2022-10-03T08:41:13.003Z,60.71
2022-10-03T08:44:06.097Z,60.66
2022-10-03T08:47:01.458Z,60.62
2022-10-03T08:49:42.661Z,60.71
2022-10-03T08:52:22.930Z,60.51
2022-10-03T08:54:58.802Z,60.72
2022-10-03T08:57:54.098Z,60.53
2022-10-03T09:00:22.032Z,60.68
2022-10-03T09:03:35.283Z,60.77
2022-10-03T09:07:12.178Z,60.53
2022-10-03T09:09:50.425Z,60.78
2022-10-03T09:12:35.764Z,60.77
2022-10-03T09:15:21.776Z,60.62
2022-10-03T09:18:00.784Z,60.76
2022-10-03T09:20:56.249Z,60.68
2022-10-03T09:23:45.757Z,60.81
2022-10-03T09:26:24.672Z,60.74
2022-10-03T09:29:07.181Z,60.66
2022-10-03T09:31:51.330Z,60.82
2022-10-03T09:34:30.329Z,60.69
2022-10-03T09:37:34.384Z,60.74
2022-10-03T09:40:16.968Z,60.90
2022-10-03T09:43:29.420Z,60.90
2022-10-03T09:46:46.343Z,60.54
2022-10-03T09:49:29.848Z,60.75
2022-10-03T09:52:08.145Z,60.63
2022-10-03T09:54:55.149Z,60.64
2022-10-03T09:57:50.412Z,60.70
2022-10-03T10:00:23.132Z,60.47
2022-10-03T10:03:24.663Z,60.43
2022-10-03T10:06:25.013Z,60.62
2022-10-03T10:09:35.013Z,60.55
2022-10-03T10:12:35.195Z,60.78
2022-10-03T10:15:38.720Z,60.54
2022-10-03T10:18:18.434Z,60.61
2022-10-03T10:21:35.882Z,60.57
2022-10-03T10:24:24.628Z,60.67
2022-10-03T10:27:10.834Z,60.67
2022-10-03T10:29:53.301Z,60.43
2022-10-03T10:33:09.090Z,60.52
2022-10-03T10:35:51.827Z,60.51
2022-10-03T10:38:37.493Z,60.65
2022-10-03T10:41:43.422Z,60.62
2022-10-03T10:44:41.409Z,60.82
2022-10-03T10:47:14.345Z,60.67
2022-10-03T10:50:07.490Z,60.58
2022-10-03T10:53:13.038Z,60.55
2022-10-03T10:56:17.918Z,60.41
2022-10-03T10:59:30.200Z,60.51
2022-10-03T11:02:37.976Z,60.46
2022-10-03T11:05:42.355Z,60.44
2022-10-03T11:08:30.912Z,60.33
2022-10-03T11:11:46.504Z,60.45
2022-10-03T11:14:31.241Z,60.32
2022-10-03T11:17:25.037Z,60.58
2022-10-03T11:20:30.195Z,60.59
2022-10-03T11:23:22.595Z,60.58
2022-10-03T11:26:07.966Z,60.65
2022-10-03T11:28:53.645Z,60.60
2022-10-03T11:31:41.799Z,60.59
2022-10-03T11:34:44.288Z,60.69
2022-10-03T11:37:30.923Z,60.41
2022-10-03T11:40:05.604Z,60.33
2022-10-03T11:42:41.025Z,60.64
2022-10-03T11:45:16.118Z,60.23
2022-10-03T11:47:47.022Z,60.35
2022-10-03T11:50:36.392Z,60.49
2022-10-03T11:53:17.593Z,60.55
2022-10-03T11:55:51.378Z,60.38
2022-10-03T11:58:34.957Z,60.42
2022-10-03T12:01:16.681Z,60.34
2022-10-03T12:03:47.205Z,60.21
2022-10-03T12:06:33.761Z,60.32
2022-10-03T12:09:06.440Z,60.33
2022-10-03T12:11:37.903Z,60.70
2022-10-03T12:14:14.699Z,60.64
2022-10-03T12:16:51.832Z,60.49
2022-10-03T12:19:23.913Z,60.45
2022-10-03T12:21:54.733Z,60.54
2022-10-03T12:24:25.721Z,60.71
2022-10-03T12:26:59.177Z,60.46
2022-10-03T12:29:27.532Z,60.54
2022-10-03T12:32:26.485Z,60.43
2022-10-03T12:35:00.462Z,60.90
2022-10-03T12:37:42.342Z,60.47
2022-10-03T12:40:16.198Z,60.51
2022-10-03T12:42:48.353Z,60.27
2022-10-03T12:45:22.633Z,60.52
2022-10-03T12:47:59.576Z,60.39
2022-10-03T12:50:46.948Z,60.34
2022-10-03T12:53:23.777Z,60.10
2022-10-03T12:55:59.766Z,60.45
2022-10-03T12:58:32.113Z,60.13
2022-10-03T13:01:03.446Z,60.44
2022-10-03T13:03:38.504Z,60.45
2022-10-03T13:06:33.884Z,60.42
2022-10-03T13:09:16.424Z,60.54
2022-10-03T13:11:53.373Z,60.50
2022-10-03T13:14:28.450Z,60.45
2022-10-03T13:17:00.922Z,60.38
2022-10-03T13:19:29.833Z,60.41
2022-10-03T13:22:03.918Z,60.40
2022-10-03T13:24:34.339Z,60.11
2022-10-03T13:27:06.795Z,60.25
2022-10-03T13:29:40.395Z,60.39
2022-10-03T13:32:12.324Z,60.25
2022-10-03T13:34:50.808Z,60.33
2022-10-03T13:37:22.048Z,60.38
2022-10-03T13:39:50.489Z,60.30
2022-10-03T13:42:20.092Z,60.27
2022-10-03T13:44:52.885Z,60.41
2022-10-03T13:47:29.871Z,60.40
2022-10-03T13:50:01.240Z,60.57
2022-10-03T13:52:36.483Z,60.35
2022-10-03T13:55:28.157Z,60.35
2022-10-03T13:58:06.727Z,60.49
2022-10-03T14:00:37.098Z,60.38
2022-10-03T14:03:13.678Z,60.19
2022-10-03T14:05:51.510Z,60.41
2022-10-03T14:08:28.809Z,60.22
2022-10-03T14:11:06.270Z,60.30
2022-10-03T14:13:43.278Z,60.27
2022-10-03T14:16:13.867Z,60.27
2022-10-03T14:18:46.818Z,60.21
2022-10-03T14:21:44.725Z,60.15
2022-10-03T14:24:37.278Z,60.28
2022-10-03T14:27:10.604Z,60.18
2022-10-03T14:29:40.465Z,60.48
2022-10-03T14:32:28.209Z,60.32
2022-10-03T14:35:01.905Z,60.21
2022-10-03T14:37:32.310Z,60.25
2022-10-03T14:40:07.719Z,60.33
2022-10-03T14:42:41.900Z,60.45
2022-10-03T14:45:10.258Z,60.29
2022-10-03T14:47:41.180Z,60.48
2022-10-03T14:50:15.708Z,60.14
2022-10-03T14:52:44.368Z,60.20
2022-10-03T14:55:14.704Z,60.32
2022-10-03T14:58:06.002Z,60.28
2022-10-03T15:00:42.898Z,60.26
2022-10-03T15:03:39.735Z,60.19
2022-10-03T15:06:33.982Z,60.38
2022-10-03T15:09:02.883Z,60.29
2022-10-03T15:11:32.645Z,60.09
2022-10-03T15:14:02.606Z,60.10
2022-10-03T15:16:32.715Z,60.30
2022-10-03T15:19:07.016Z,60.14
2022-10-03T15:21:34.878Z,60.31
2022-10-03T15:24:03.454Z,60.40
2022-10-03T15:26:33.982Z,60.34
2022-10-03T15:29:03.700Z,60.31
2022-10-03T15:31:35.261Z,60.34
2022-10-03T15:34:05.990Z,60.23
2022-10-03T15:36:35.878Z,60.29
2022-10-03T15:39:04.839Z,60.20
2022-10-03T15:41:35.060Z,60.54
2022-10-03T15:44:04.930Z,60.28
2022-10-03T15:46:34.727Z,60.24
2022-10-03T15:49:04.375Z,60.36
2022-10-03T15:51:32.795Z,60.16
2022-10-03T15:54:01.754Z,60.26
2022-10-03T15:56:31.453Z,60.41
2022-10-03T15:59:00.320Z,60.36
2022-10-03T16:01:28.668Z,60.26
2022-10-03T16:03:57.786Z,60.27
2022-10-03T16:06:34.952Z,60.14
2022-10-03T16:09:05.421Z,60.05
2022-10-03T16:11:35.867Z,60.05
2022-10-03T16:14:12.284Z,59.87
2022-10-03T16:16:40.948Z,59.79
2022-10-03T16:19:23.143Z,59.99
2022-10-03T16:21:52.870Z,59.87
2022-10-03T16:24:31.406Z,60.03
2022-10-03T16:27:02.617Z,59.88
2022-10-03T16:29:32.557Z,59.86
2022-10-03T16:32:02.192Z,60.07
2022-10-03T16:34:31.196Z,60.33
2022-10-03T16:37:00.049Z,60.28
2022-10-03T16:39:29.400Z,60.79
2022-10-03T16:41:57.045Z,60.71
2022-10-03T16:44:26.780Z,61.20
2022-10-03T16:46:55.420Z,60.81
2022-10-03T16:50:02.118Z,61.00
2022-10-03T16:52:33.556Z,60.63
2022-10-03T16:55:03.821Z,61.33
2022-10-03T16:57:36.583Z,60.42
2022-10-03T17:00:07.833Z,61.38
2022-10-03T17:02:35.446Z,61.56
2022-10-03T17:05:05.060Z,61.33
2022-10-03T17:07:38.204Z,61.34
2022-10-03T17:10:06.249Z,61.25
2022-10-03T17:12:34.661Z,61.20
2022-10-03T17:15:04.357Z,61.09
2022-10-03T17:17:34.065Z,61.27
2022-10-03T17:20:04.586Z,61.06
2022-10-03T17:22:37.010Z,61.02
2022-10-03T17:25:05.750Z,61.06
2022-10-03T17:27:36.733Z,60.75
2022-10-03T17:30:06.083Z,60.66
2022-10-03T17:32:36.261Z,60.83
2022-10-03T17:35:06.308Z,60.88
2022-10-03T17:37:45.036Z,60.79
2022-10-03T17:40:17.653Z,61.00
2022-10-03T17:42:45.921Z,61.23
2022-10-03T17:45:20.969Z,61.31
2022-10-03T17:47:52.843Z,61.16
2022-10-03T17:50:21.946Z,60.96
2022-10-03T17:52:52.808Z,60.58
2022-10-03T17:55:22.650Z,60.30
2022-10-03T17:57:51.211Z,60.20
2022-10-03T18:00:20.313Z,60.15
2022-10-03T18:02:52.793Z,60.10
2022-10-03T18:05:21.870Z,59.91
2022-10-03T18:07:51.186Z,59.82
2022-10-03T18:10:21.212Z,59.67
2022-10-03T18:12:49.093Z,59.57
2022-10-03T18:15:46.979Z,59.44
2022-10-03T18:18:35.874Z,59.34
2022-10-03T18:21:05.287Z,59.51
2022-10-03T18:23:54.181Z,59.54
2022-10-03T18:26:26.721Z,59.21
2022-10-03T18:29:01.045Z,59.20
2022-10-03T18:31:30.942Z,59.12
2022-10-03T18:33:59.551Z,58.90
2022-10-03T18:36:28.280Z,59.06
2022-10-03T18:38:58.866Z,58.43
2022-10-03T18:41:26.396Z,58.38
2022-10-03T18:43:58.651Z,58.59
2022-10-03T18:46:30.150Z,58.65
2022-10-03T18:51:48.501Z,58.35
2022-10-03T18:54:24.219Z,58.19
2022-10-03T18:57:03.480Z,58.14
2022-10-03T18:59:33.144Z,58.24
2022-10-03T19:02:01.894Z,58.05
2022-10-03T19:04:36.864Z,57.72
2022-10-03T19:07:11.938Z,57.17
2022-10-03T19:09:42.541Z,57.09
2022-10-03T19:12:11.733Z,56.95
2022-10-03T19:14:41.753Z,56.85
2022-10-03T19:17:22.480Z,56.96
2022-10-03T19:19:55.242Z,56.93
2022-10-03T19:22:31.249Z,57.09
2022-10-03T19:25:02.566Z,57.38
2022-10-03T19:27:40.940Z,57.63
2022-10-03T19:30:09.329Z,57.69
2022-10-03T19:32:47.380Z,57.72
2022-10-03T19:35:18.853Z,58.10
2022-10-03T19:37:48.113Z,58.13
2022-10-03T19:40:31.661Z,58.04
2022-10-03T19:43:11.926Z,58.67
2022-10-03T19:45:39.538Z,58.10
2022-10-03T19:48:10.382Z,58.32
2022-10-03T19:50:38.401Z,58.46
2022-10-03T19:53:10.835Z,58.86
2022-10-03T19:55:41.050Z,58.57
2022-10-03T19:58:13.093Z,58.66
2022-10-03T20:00:40.718Z,58.94
2022-10-03T20:03:13.836Z,59.02
2022-10-03T20:05:44.368Z,58.85
2022-10-03T20:08:31.421Z,58.81
2022-10-03T20:11:05.583Z,59.04
2022-10-03T20:13:33.149Z,59.02
2022-10-03T20:16:01.073Z,59.14
2022-10-03T20:18:31.152Z,59.24
2022-10-03T20:20:59.001Z,59.22
2022-10-03T20:23:27.162Z,59.23
2022-10-03T20:25:57.492Z,59.19
2022-10-03T20:28:31.569Z,59.34
2022-10-03T20:30:59.213Z,59.50
2022-10-03T20:33:28.641Z,59.31
2022-10-03T20:35:57.876Z,59.66
2022-10-03T20:38:31.294Z,59.45
2022-10-03T20:41:01.125Z,59.45
2022-10-03T20:43:41.415Z,59.59
2022-10-03T20:46:24.049Z,59.72
2022-10-03T20:49:09.612Z,59.58
2022-10-03T20:51:43.047Z,59.67
2022-10-03T20:54:13.932Z,59.75
2022-10-03T20:56:46.336Z,59.61
2022-10-03T20:59:15.205Z,59.73
2022-10-03T21:01:43.183Z,59.68
2022-10-03T21:04:14.971Z,59.83
2022-10-03T21:06:57.648Z,59.61
2022-10-03T21:09:32.930Z,59.81
2022-10-03T21:12:00.569Z,59.88
2022-10-03T21:14:29.857Z,59.74
2022-10-03T21:16:57.365Z,59.87
2022-10-03T21:19:37.546Z,59.80
2022-10-03T21:22:05.877Z,59.80
2022-10-03T21:24:37.477Z,59.90
2022-10-03T21:27:07.213Z,59.98
2022-10-03T21:29:36.836Z,59.82
2022-10-03T21:32:12.852Z,59.81
2022-10-03T21:34:44.189Z,59.96
2022-10-03T21:37:14.748Z,59.85
2022-10-03T21:39:46.230Z,59.91
2022-10-03T21:42:17.345Z,59.98
2022-10-03T21:44:52.737Z,60.02
2022-10-03T21:47:26.976Z,60.12
2022-10-03T21:49:56.850Z,59.90
2022-10-03T21:52:41.589Z,60.00
2022-10-03T21:55:17.556Z,59.99
2022-10-03T21:57:50.623Z,59.98
2022-10-03T22:00:19.919Z,59.96
2022-10-03T22:02:53.025Z,60.08
2022-10-03T22:05:25.614Z,60.11
2022-10-03T22:07:53.176Z,60.23
2022-10-03T22:10:21.984Z,60.07
2022-10-03T22:12:50.748Z,60.12
2022-10-03T22:15:24.332Z,60.13
2022-10-03T22:17:53.965Z,60.08
2022-10-03T22:20:22.906Z,60.15
2022-10-03T22:22:55.973Z,60.03
2022-10-03T22:25:32.292Z,59.97
2022-10-03T22:28:02.379Z,60.14
2022-10-03T22:30:31.323Z,60.21
2022-10-03T22:33:07.769Z,60.19
2022-10-03T22:35:43.096Z,60.02
2022-10-03T22:38:10.751Z,60.02
2022-10-03T22:40:38.318Z,60.08
2022-10-03T22:43:06.029Z,60.08
2022-10-03T22:45:36.317Z,60.20
2022-10-03T22:48:05.374Z,60.20
2022-10-03T22:50:33.671Z,60.20
2022-10-03T22:53:01.420Z,60.18
2022-10-03T22:55:28.985Z,60.31
2022-10-03T22:57:56.565Z,60.29
2022-10-03T23:00:25.474Z,60.20
2022-10-03T23:02:59.706Z,60.33
2022-10-03T23:05:33.750Z,60.21
2022-10-03T23:08:05.781Z,59.93
2022-10-03T23:10:39.590Z,60.36
2022-10-03T23:13:08.334Z,60.20
2022-10-03T23:15:36.797Z,60.31
2022-10-03T23:18:21.150Z,59.91
2022-10-03T23:21:00.596Z,60.29
2022-10-03T23:23:31.588Z,60.29
2022-10-03T23:26:04.100Z,60.21
2022-10-03T23:28:33.513Z,60.25
2022-10-03T23:31:01.154Z,60.35
2022-10-03T23:33:50.846Z,60.32
2022-10-03T23:36:20.304Z,60.34
2022-10-03T23:38:59.707Z,60.30
2022-10-03T23:41:43.956Z,60.33
2022-10-03T23:44:48.915Z,60.22
2022-10-03T23:47:18.177Z,60.32
2022-10-03T23:49:47.836Z,60.36
2022-10-03T23:52:18.201Z,60.45
2022-10-03T23:54:46.065Z,60.41
2022-10-03T23:57:13.609Z,60.41
2022-10-03T23:59:41.116Z,60.35
